createdAt,value
2017-05-18T00:01:40.705Z,54.70
2017-05-18T00:04:09.862Z,54.70
2017-05-18T00:06:38.961Z,54.50
2017-05-18T00:09:08.054Z,55.00
2017-05-18T00:11:37.104Z,55.20
2017-05-18T00:14:06.906Z,55.20
2017-05-18T00:16:35.937Z,55.20
2017-05-18T00:19:05.016Z,55.60
2017-05-18T00:21:34.831Z,55.20
2017-05-18T00:24:04.682Z,55.80
2017-05-18T00:26:33.839Z,55.90
2017-05-18T00:29:03.619Z,56.00
2017-05-18T00:31:32.673Z,56.50
2017-05-18T00:34:01.702Z,56.50
2017-05-18T00:36:30.769Z,56.40
2017-05-18T00:38:59.813Z,56.70
2017-05-18T00:41:28.857Z,56.20
2017-05-18T00:43:57.900Z,56.70
2017-05-18T00:46:26.997Z,56.80
2017-05-18T00:48:56.115Z,57.50
2017-05-18T00:51:25.917Z,57.20
2017-05-18T00:53:55.714Z,57.20
2017-05-18T00:56:24.823Z,57.20
2017-05-18T00:58:54.637Z,57.30
2017-05-18T01:01:24.423Z,57.80
2017-05-18T01:03:53.479Z,57.90
2017-05-18T01:06:22.523Z,58.10
2017-05-18T01:08:51.633Z,58.10
2017-05-18T01:11:20.669Z,57.90
2017-05-18T01:13:49.729Z,58.20
2017-05-18T01:16:18.778Z,58.20
2017-05-18T01:18:47.875Z,58.50
2017-05-18T01:21:17.702Z,58.70
2017-05-18T01:23:47.579Z,58.10
2017-05-18T01:26:16.633Z,58.60
2017-05-18T01:28:45.697Z,59.00
2017-05-18T01:31:15.520Z,59.00
2017-05-18T01:33:45.326Z,59.10
2017-05-18T01:36:15.124Z,58.80
2017-05-18T01:38:44.323Z,58.80
2017-05-18T01:41:13.428Z,59.20
2017-05-18T01:43:43.255Z,58.90
2017-05-18T01:46:12.307Z,59.30
2017-05-18T01:48:41.389Z,59.10
2017-05-18T01:51:10.428Z,59.40
2017-05-18T01:53:40.220Z,59.40
2017-05-18T01:56:09.338Z,59.60
2017-05-18T01:58:39.146Z,59.40
2017-05-18T02:01:08.963Z,59.80
2017-05-18T02:03:38.769Z,60.00
2017-05-18T02:06:08.595Z,59.90
2017-05-18T02:08:37.681Z,59.90
2017-05-18T02:11:06.829Z,60.00
2017-05-18T02:13:36.645Z,59.80
2017-05-18T02:16:05.688Z,60.40
2017-05-18T02:18:34.847Z,61.40
2017-05-18T02:21:04.660Z,61.00
2017-05-18T02:23:34.473Z,60.60
2017-05-18T02:26:03.516Z,61.10
2017-05-18T02:28:32.592Z,61.10
2017-05-18T02:31:02.391Z,60.80
2017-05-18T02:33:31.437Z,60.90
2017-05-18T02:36:00.549Z,61.30
2017-05-18T02:38:30.351Z,61.30
2017-05-18T02:40:59.419Z,61.40
2017-05-18T02:43:28.477Z,61.70
2017-05-18T02:45:58.291Z,62.10
2017-05-18T02:48:27.364Z,62.80
2017-05-18T02:50:56.473Z,61.80
2017-05-18T02:53:26.378Z,62.20
2017-05-18T02:55:56.200Z,62.30
2017-05-18T02:58:25.994Z,62.30
2017-05-18T03:00:55.123Z,62.10
2017-05-18T03:03:24.214Z,62.60
2017-05-18T03:05:54.027Z,62.60
2017-05-18T03:08:23.086Z,62.80
2017-05-18T03:10:52.164Z,63.00
2017-05-18T03:13:21.220Z,63.40
2017-05-18T03:15:50.306Z,63.30
2017-05-18T03:18:20.101Z,63.40
2017-05-18T03:20:49.915Z,63.40
2017-05-18T03:23:18.967Z,63.30
2017-05-18T03:25:48.033Z,63.50
2017-05-18T03:28:17.076Z,64.10
2017-05-18T03:30:46.140Z,64.10
2017-05-18T03:33:15.290Z,63.80
2017-05-18T03:35:45.124Z,64.10
2017-05-18T03:38:14.171Z,64.50
2017-05-18T03:40:43.303Z,64.20
2017-05-18T03:43:13.101Z,64.10
2017-05-18T03:45:42.149Z,64.70
2017-05-18T03:48:11.299Z,64.80
2017-05-18T03:50:40.401Z,64.50
2017-05-18T03:53:10.214Z,64.70
2017-05-18T03:55:39.326Z,64.50
2017-05-18T03:58:09.127Z,64.80
2017-05-18T04:00:38.937Z,64.70
2017-05-18T04:03:08.721Z,65.40
2017-05-18T04:05:37.806Z,64.50
2017-05-18T04:08:07.617Z,64.10
2017-05-18T04:10:37.446Z,64.60
2017-05-18T04:13:07.354Z,64.30
2017-05-18T04:15:37.169Z,64.50
2017-05-18T04:18:07.091Z,64.40
2017-05-18T04:20:36.886Z,64.20
2017-05-18T04:23:06.035Z,64.10
2017-05-18T04:25:35.951Z,63.70
2017-05-18T04:28:05.738Z,63.40
2017-05-18T04:30:35.538Z,63.40
2017-05-18T04:33:04.595Z,63.40
2017-05-18T04:35:34.517Z,63.30
2017-05-18T04:38:03.614Z,63.70
2017-05-18T04:40:33.537Z,62.90
2017-05-18T04:43:03.357Z,63.00
2017-05-18T04:45:32.516Z,63.30
2017-05-18T04:48:01.584Z,62.40
2017-05-18T04:50:30.697Z,62.70
2017-05-18T04:53:01.608Z,62.40
2017-05-18T04:55:30.703Z,61.90
2017-05-18T04:58:00.506Z,62.20
2017-05-18T05:00:29.594Z,62.00
2017-05-18T05:03:00.152Z,62.80
2017-05-18T05:05:30.061Z,61.90
2017-05-18T05:08:00.895Z,61.00
2017-05-18T05:10:29.974Z,60.40
2017-05-18T05:12:59.773Z,60.20
2017-05-18T05:15:29.580Z,60.20
2017-05-18T05:17:58.638Z,60.70
2017-05-18T05:20:27.790Z,60.10
2017-05-18T05:22:57.707Z,59.80
2017-05-18T05:25:27.512Z,59.00
2017-05-18T05:27:57.317Z,58.80
2017-05-18T05:30:27.137Z,58.70
2017-05-18T05:32:57.059Z,59.10
2017-05-18T05:35:26.890Z,58.90
2017-05-18T05:37:55.962Z,58.30
2017-05-18T05:40:25.875Z,58.90
2017-05-18T05:42:55.682Z,58.50
2017-05-18T05:45:25.490Z,57.80
2017-05-18T05:47:54.538Z,57.20
2017-05-18T05:50:23.699Z,57.30
2017-05-18T05:52:53.581Z,57.10
2017-05-18T05:55:22.663Z,57.70
2017-05-18T05:57:51.716Z,57.00
2017-05-18T06:00:20.761Z,57.00
2017-05-18T06:02:49.829Z,56.80
2017-05-18T06:05:18.992Z,56.90
2017-05-18T06:07:48.903Z,56.00
2017-05-18T06:10:18.698Z,56.10
2017-05-18T06:12:47.822Z,56.30
2017-05-18T06:15:17.629Z,55.40
2017-05-18T06:17:47.536Z,55.20
2017-05-18T06:20:17.326Z,55.30
2017-05-18T06:22:46.479Z,54.60
2017-05-18T06:25:15.692Z,54.70
2017-05-18T06:27:44.745Z,54.40
2017-05-18T06:30:14.660Z,54.10
2017-05-18T06:32:44.474Z,53.70
2017-05-18T06:35:14.384Z,53.00
2017-05-18T06:37:44.199Z,52.70
2017-05-18T06:40:13.266Z,52.10
2017-05-18T06:42:42.310Z,52.00
2017-05-18T06:45:11.372Z,51.50
2017-05-18T06:47:40.496Z,51.10
2017-05-18T06:50:09.537Z,51.00
2017-05-18T06:52:38.618Z,50.40
2017-05-18T06:55:07.774Z,49.40
2017-05-18T06:57:37.675Z,48.80
2017-05-18T07:00:06.725Z,48.20
2017-05-18T07:02:35.879Z,48.10
2017-05-18T07:05:05.789Z,47.50
2017-05-18T07:07:34.839Z,46.60
2017-05-18T07:10:03.915Z,47.00
2017-05-18T07:12:33.047Z,47.00
2017-05-18T07:15:02.909Z,46.10
2017-05-18T07:17:32.041Z,46.00
2017-05-18T07:20:01.085Z,44.80
2017-05-18T07:22:30.547Z,44.50
2017-05-18T07:24:59.587Z,45.00
2017-05-18T07:27:28.739Z,44.80
2017-05-18T07:29:58.553Z,44.70
2017-05-18T07:32:28.366Z,43.80
2017-05-18T07:34:58.199Z,43.60
2017-05-18T07:37:27.984Z,43.70
2017-05-18T07:39:57.024Z,43.40
2017-05-18T07:42:26.077Z,43.20
2017-05-18T07:44:55.173Z,42.90
2017-05-18T07:47:24.283Z,42.80
2017-05-18T07:49:54.081Z,42.70
2017-05-18T07:52:23.114Z,42.60
2017-05-18T07:54:52.159Z,42.80
2017-05-18T07:57:21.205Z,42.30
2017-05-18T07:59:50.266Z,41.80
2017-05-18T08:02:19.291Z,42.00
2017-05-18T08:04:48.327Z,41.90
2017-05-18T08:07:17.370Z,42.20
2017-05-18T08:09:46.437Z,42.10
2017-05-18T08:12:15.505Z,41.10
2017-05-18T08:14:44.629Z,41.20
2017-05-18T08:17:13.740Z,40.70
2017-05-18T08:19:43.513Z,40.70
2017-05-18T08:22:12.659Z,40.90
2017-05-18T08:24:41.747Z,40.60
2017-05-18T08:27:11.654Z,40.60
2017-05-18T08:29:41.469Z,40.20
2017-05-18T08:32:11.268Z,40.50
2017-05-18T08:34:40.382Z,40.00
2017-05-18T08:37:10.185Z,40.10
2017-05-18T08:39:40.034Z,39.20
2017-05-18T08:42:09.194Z,39.10
2017-05-18T08:44:38.237Z,38.80
2017-05-18T08:47:07.282Z,38.80
2017-05-18T08:49:36.338Z,38.40
2017-05-18T08:52:05.498Z,37.80
2017-05-18T08:54:35.274Z,38.40
2017-05-18T08:57:04.402Z,38.70
2017-05-18T08:59:33.448Z,38.70
2017-05-18T09:02:02.489Z,38.70
2017-05-18T09:04:32.285Z,38.70
2017-05-18T09:07:01.385Z,39.20
2017-05-18T09:09:30.459Z,37.80
2017-05-18T09:11:59.577Z,37.80
2017-05-18T09:14:29.490Z,36.90
2017-05-18T09:16:58.525Z,36.80
2017-05-18T09:19:27.691Z,36.80
2017-05-18T09:21:57.489Z,36.60
2017-05-18T09:24:26.592Z,36.00
2017-05-18T09:26:56.385Z,35.40
2017-05-18T09:29:25.431Z,35.90
2017-05-18T09:31:54.602Z,35.90
2017-05-18T09:34:24.414Z,36.00
2017-05-18T09:36:54.235Z,37.10
2017-05-18T09:39:24.046Z,37.10
2017-05-18T09:41:53.850Z,37.30
2017-05-18T09:44:22.945Z,37.40
2017-05-18T09:46:52.026Z,37.10
2017-05-18T09:49:21.039Z,35.90
2017-05-18T09:51:50.849Z,36.60
2017-05-18T09:54:20.672Z,35.80
2017-05-18T09:56:50.475Z,36.90
2017-05-18T09:59:19.567Z,36.40
2017-05-18T10:01:48.673Z,36.10
2017-05-18T10:04:18.457Z,35.40
2017-05-18T10:06:47.581Z,36.50
2017-05-18T10:09:17.391Z,36.80
2017-05-18T10:11:47.258Z,36.40
2017-05-18T10:14:17.013Z,36.60
2017-05-18T10:16:46.122Z,37.40
2017-05-18T10:19:15.922Z,37.20
2017-05-18T10:21:44.978Z,37.60
2017-05-18T10:24:14.109Z,36.30
2017-05-18T10:26:43.209Z,35.40
2017-05-18T10:29:12.990Z,37.00
2017-05-18T10:31:42.117Z,35.80
2017-05-18T10:34:11.149Z,35.30
2017-05-18T10:36:40.198Z,33.90
2017-05-18T10:39:09.311Z,34.00
2017-05-18T10:41:38.401Z,35.00
2017-05-18T10:44:08.170Z,34.90
2017-05-18T10:46:37.224Z,35.40
2017-05-18T10:49:06.406Z,33.70
2017-05-18T10:51:35.434Z,34.40
2017-05-18T10:54:04.500Z,35.30
2017-05-18T10:56:34.286Z,35.00
2017-05-18T10:59:03.407Z,34.10
2017-05-18T11:01:33.227Z,33.60
2017-05-18T11:04:03.013Z,33.60
2017-05-18T11:06:32.124Z,34.50
2017-05-18T11:09:01.223Z,34.20
2017-05-18T11:11:30.418Z,32.80
2017-05-18T11:13:59.514Z,33.90
2017-05-18T11:16:28.711Z,34.10
2017-05-18T11:18:57.812Z,34.30
2017-05-18T11:21:26.910Z,34.10
2017-05-18T11:23:56.005Z,34.30
2017-05-18T11:26:25.826Z,33.50
2017-05-18T11:28:55.598Z,32.90
2017-05-18T11:31:24.732Z,34.00
2017-05-18T11:33:54.539Z,31.90
2017-05-18T11:36:23.645Z,32.70
2017-05-18T11:38:53.442Z,34.50
2017-05-18T11:41:22.549Z,33.80
2017-05-18T11:43:52.354Z,31.70
2017-05-18T11:46:21.464Z,33.00
2017-05-18T11:48:51.264Z,32.50
2017-05-18T11:51:20.358Z,32.80
2017-05-18T11:53:49.463Z,31.90
2017-05-18T11:56:19.229Z,31.50
2017-05-18T11:58:48.374Z,29.90
2017-05-18T12:01:18.151Z,31.40
2017-05-18T12:03:47.291Z,30.50
2017-05-18T12:06:17.099Z,30.50
2017-05-18T12:08:46.921Z,30.10
2017-05-18T12:11:16.710Z,27.80
2017-05-18T12:13:45.817Z,26.60
2017-05-18T12:16:15.583Z,24.20
2017-05-18T12:18:44.733Z,23.00
2017-05-18T12:21:13.773Z,21.80
2017-05-18T12:23:43.565Z,20.10
2017-05-18T12:26:12.647Z,19.20
2017-05-18T12:28:41.762Z,18.60
2017-05-18T12:31:10.858Z,18.20
2017-05-18T12:33:40.634Z,18.20
2017-05-18T12:36:09.761Z,18.80
2017-05-18T12:38:39.582Z,18.70
2017-05-18T12:41:09.034Z,18.20
2017-05-18T12:43:38.069Z,17.60
2017-05-18T12:46:07.386Z,17.50
2017-05-18T12:48:36.854Z,18.10
2017-05-18T12:51:06.630Z,16.90
2017-05-18T12:53:35.682Z,18.30
2017-05-18T12:56:04.740Z,18.20
2017-05-18T12:58:33.838Z,17.50
2017-05-18T13:01:02.941Z,18.00
2017-05-18T13:03:32.757Z,18.20
2017-05-18T13:06:02.575Z,18.10
2017-05-18T13:08:32.366Z,18.70
2017-05-18T13:11:01.474Z,18.30
2017-05-18T13:13:36.401Z,17.60
2017-05-18T13:16:05.431Z,17.10
2017-05-18T13:18:34.609Z,17.40
2017-05-18T13:21:04.441Z,17.50
2017-05-18T13:23:33.501Z,17.60
2017-05-18T13:26:02.605Z,17.20
2017-05-18T13:28:32.379Z,18.00
2017-05-18T13:31:01.427Z,17.50
2017-05-18T13:33:31.227Z,17.50
2017-05-18T13:36:01.012Z,17.10
2017-05-18T13:38:30.059Z,17.60
2017-05-18T13:40:59.121Z,17.20
2017-05-18T13:43:28.150Z,16.90
2017-05-18T13:45:57.197Z,17.20
2017-05-18T13:48:26.231Z,16.60
2017-05-18T13:50:55.280Z,16.70
2017-05-18T13:53:24.316Z,15.50
2017-05-18T13:55:54.231Z,16.20
2017-05-18T13:58:24.024Z,16.30
2017-05-18T14:00:53.057Z,17.00
2017-05-18T14:03:22.114Z,17.20
2017-05-18T14:05:51.145Z,17.10
2017-05-18T14:08:20.215Z,17.10
2017-05-18T14:10:49.255Z,16.50
2017-05-18T14:13:18.393Z,17.20
2017-05-18T14:15:47.425Z,16.30
2017-05-18T14:18:16.486Z,16.80
2017-05-18T14:20:45.598Z,17.00
2017-05-18T14:23:15.519Z,18.00
2017-05-18T14:25:44.555Z,17.00
2017-05-18T14:28:13.598Z,16.80
2017-05-18T14:30:43.398Z,16.90
2017-05-18T14:33:12.467Z,17.30
2017-05-18T14:35:41.502Z,17.50
2017-05-18T14:38:11.277Z,17.10
2017-05-18T14:40:40.318Z,17.10
2017-05-18T14:43:09.376Z,17.90
2017-05-18T14:45:38.489Z,16.50
2017-05-18T14:48:07.522Z,16.60
2017-05-18T14:50:36.677Z,17.80
2017-05-18T14:53:05.707Z,17.70
2017-05-18T14:55:34.755Z,16.70
2017-05-18T14:58:04.804Z,17.10
2017-05-18T15:00:33.880Z,17.10
2017-05-18T15:03:02.929Z,17.40
2017-05-18T15:05:32.741Z,17.40
2017-05-18T15:08:02.516Z,18.10
2017-05-18T15:10:31.565Z,17.80
2017-05-18T15:13:00.605Z,18.20
2017-05-18T15:15:29.725Z,17.30
2017-05-18T15:17:58.757Z,17.50
2017-05-18T15:20:27.816Z,18.70
2017-05-18T15:22:56.839Z,17.30
2017-05-18T15:25:25.910Z,17.70
2017-05-18T15:27:55.718Z,17.50
2017-05-18T15:30:24.914Z,16.90
2017-05-18T15:32:53.950Z,17.30
2017-05-18T15:35:23.006Z,17.40
2017-05-18T15:37:52.057Z,17.20
2017-05-18T15:40:21.199Z,17.40
2017-05-18T15:42:50.296Z,17.50
2017-05-18T15:45:19.339Z,17.80
2017-05-18T15:47:48.405Z,18.40
2017-05-18T15:50:17.450Z,18.70
2017-05-18T15:52:46.518Z,18.40
2017-05-18T15:55:15.555Z,18.90
2017-05-18T15:57:44.677Z,18.60
2017-05-18T16:00:14.457Z,18.70
2017-05-18T16:02:43.580Z,18.70
2017-05-18T16:05:13.389Z,18.60
2017-05-18T16:07:42.454Z,19.10
2017-05-18T16:10:11.490Z,19.40
2017-05-18T16:12:41.280Z,18.70
2017-05-18T16:15:10.337Z,18.90
2017-05-18T16:17:39.379Z,19.20
2017-05-18T16:20:08.526Z,19.50
2017-05-18T16:22:38.303Z,19.60
2017-05-18T16:25:07.415Z,20.20
2017-05-18T16:27:36.458Z,19.70
2017-05-18T16:30:05.625Z,19.20
2017-05-18T16:32:35.443Z,19.60
2017-05-18T16:35:04.483Z,20.60
2017-05-18T16:37:33.541Z,20.10
2017-05-18T16:40:02.590Z,20.30
2017-05-18T16:42:31.701Z,20.30
2017-05-18T16:45:00.812Z,20.00
2017-05-18T16:47:30.608Z,20.70
2017-05-18T16:49:59.723Z,21.50
2017-05-18T16:52:29.527Z,21.20
2017-05-18T16:54:59.344Z,22.70
2017-05-18T16:57:29.273Z,22.20
2017-05-18T16:59:58.305Z,22.50
2017-05-18T17:02:27.491Z,21.30
2017-05-18T17:04:56.535Z,21.20
2017-05-18T17:07:25.583Z,20.80
2017-05-18T17:09:54.737Z,20.30
2017-05-18T17:12:23.789Z,20.60
2017-05-18T17:14:52.892Z,20.50
2017-05-18T17:17:21.913Z,20.60
2017-05-18T17:19:51.727Z,20.90
2017-05-18T17:22:21.537Z,21.50
2017-05-18T17:24:51.336Z,21.80
2017-05-18T17:27:20.383Z,21.00
2017-05-18T17:29:49.437Z,22.40
2017-05-18T17:32:18.559Z,21.70
2017-05-18T17:34:47.607Z,22.00
2017-05-18T17:37:16.733Z,22.20
2017-05-18T17:39:46.578Z,22.20
2017-05-18T17:42:15.756Z,22.60
2017-05-18T17:44:45.554Z,23.00
2017-05-18T17:47:15.352Z,22.70
2017-05-18T17:49:44.397Z,21.80
2017-05-18T17:52:13.451Z,23.80
2017-05-18T17:54:42.516Z,22.80
2017-05-18T17:57:11.557Z,23.50
2017-05-18T17:59:41.366Z,23.30
2017-05-18T18:02:11.163Z,22.50
2017-05-18T18:04:40.318Z,23.40
2017-05-18T18:07:09.495Z,24.50
2017-05-18T18:09:38.577Z,24.50
2017-05-18T18:12:08.349Z,24.30
2017-05-18T18:14:37.401Z,25.20
2017-05-18T18:17:06.446Z,26.40
2017-05-18T18:19:35.510Z,26.40
2017-05-18T18:22:04.557Z,26.50
2017-05-18T18:24:34.369Z,26.90
2017-05-18T18:27:04.166Z,29.00
2017-05-18T18:29:33.214Z,28.50
2017-05-18T18:32:02.309Z,28.60
2017-05-18T18:34:31.367Z,28.30
2017-05-18T18:37:00.426Z,28.60
2017-05-18T18:39:29.469Z,29.80
2017-05-18T18:41:58.553Z,29.70
2017-05-18T18:44:28.347Z,30.30
2017-05-18T18:46:57.406Z,29.60
2017-05-18T18:49:26.458Z,30.30
2017-05-18T18:51:56.277Z,30.20
2017-05-18T18:54:26.059Z,30.90
2017-05-18T18:56:55.193Z,32.10
2017-05-18T18:59:24.986Z,31.60
2017-05-18T19:01:54.816Z,31.90
2017-05-18T19:04:24.623Z,31.80
2017-05-18T19:06:54.431Z,32.60
2017-05-18T19:09:24.258Z,33.30
2017-05-18T19:11:54.047Z,34.20
2017-05-18T19:14:23.100Z,34.40
2017-05-18T19:16:52.137Z,34.00
2017-05-18T19:19:21.938Z,33.90
2017-05-18T19:21:50.981Z,34.10
2017-05-18T19:24:20.056Z,34.50
2017-05-18T19:26:49.119Z,34.80
2017-05-18T19:29:18.174Z,35.10
2017-05-18T19:31:47.235Z,35.60
2017-05-18T19:34:20.158Z,36.10
2017-05-18T19:36:49.246Z,35.70
2017-05-18T19:39:18.317Z,36.10
2017-05-18T19:41:48.221Z,36.80
2017-05-18T19:44:18.009Z,36.00
2017-05-18T19:46:47.129Z,36.60
2017-05-18T19:49:16.959Z,37.30
2017-05-18T19:51:46.773Z,36.80
2017-05-18T19:54:16.557Z,37.10
2017-05-18T19:56:45.683Z,37.50
2017-05-18T19:59:15.479Z,37.40
2017-05-18T20:01:45.293Z,37.40
2017-05-18T20:04:15.088Z,37.80
2017-05-18T20:06:45.083Z,38.00
2017-05-18T20:09:14.337Z,38.30
2017-05-18T20:11:44.587Z,38.20
2017-05-18T20:14:13.694Z,38.20
2017-05-18T20:16:43.785Z,39.00
2017-05-18T20:19:12.946Z,38.90
2017-05-18T20:21:42.208Z,39.20
2017-05-18T20:24:12.235Z,39.10
2017-05-18T20:26:41.333Z,39.10
2017-05-18T20:29:10.505Z,39.40
2017-05-18T20:31:39.669Z,39.40
2017-05-18T20:34:08.788Z,39.70
2017-05-18T20:36:37.861Z,39.80
2017-05-18T20:39:07.038Z,40.10
2017-05-18T20:41:36.078Z,40.00
2017-05-18T20:44:05.134Z,40.40
2017-05-18T20:46:34.174Z,40.80
2017-05-18T20:49:03.315Z,41.50
2017-05-18T20:51:33.125Z,41.30
2017-05-18T20:54:02.947Z,41.30
2017-05-18T20:56:32.748Z,41.50
2017-05-18T20:59:02.574Z,41.70
2017-05-18T21:01:32.366Z,41.80
2017-05-18T21:04:01.491Z,41.90
2017-05-18T21:06:30.568Z,42.00
2017-05-18T21:09:00.506Z,42.40
2017-05-18T21:11:29.591Z,42.50
2017-05-18T21:13:59.405Z,42.50
2017-05-18T21:16:29.256Z,43.00
2017-05-18T21:18:58.670Z,43.10
2017-05-18T21:21:28.134Z,43.20
2017-05-18T21:23:57.303Z,43.40
2017-05-18T21:26:26.359Z,43.40
2017-05-18T21:28:55.420Z,43.90
2017-05-18T21:31:24.523Z,44.60
2017-05-18T21:33:53.599Z,44.30
2017-05-18T21:36:23.408Z,44.10
2017-05-18T21:38:53.213Z,44.20
2017-05-18T21:41:23.025Z,45.50
2017-05-18T21:43:52.075Z,44.70
2017-05-18T21:46:21.141Z,44.70
2017-05-18T21:48:50.207Z,44.50
2017-05-18T21:51:19.342Z,45.20
2017-05-18T21:53:48.382Z,45.50
2017-05-18T21:56:17.505Z,45.30
2017-05-18T21:58:47.328Z,45.30
2017-05-18T22:01:17.235Z,45.90
2017-05-18T22:03:46.360Z,45.60
2017-05-18T22:06:16.291Z,45.90
2017-05-18T22:08:45.654Z,46.30
2017-05-18T22:11:14.714Z,46.40
2017-05-18T22:13:43.756Z,46.70
2017-05-18T22:16:13.566Z,46.70
2017-05-18T22:18:43.386Z,47.10
2017-05-18T22:21:13.185Z,47.20
2017-05-18T22:23:42.261Z,47.50
2017-05-18T22:26:11.313Z,47.60
2017-05-18T22:28:40.438Z,47.90
2017-05-18T22:31:10.355Z,47.70
2017-05-18T22:33:40.165Z,47.90
2017-05-18T22:36:09.969Z,48.20
2017-05-18T22:38:39.088Z,48.30
2017-05-18T22:41:08.172Z,48.50
2017-05-18T22:43:38.087Z,48.70
2017-05-18T22:46:07.990Z,49.00
2017-05-18T22:48:37.043Z,49.00
2017-05-18T22:51:06.098Z,49.20
2017-05-18T22:53:36.026Z,49.20
2017-05-18T22:56:05.107Z,49.70
2017-05-18T22:58:34.913Z,49.80
2017-05-18T23:01:04.705Z,50.00
2017-05-18T23:03:33.817Z,50.10
2017-05-18T23:06:03.629Z,50.50
2017-05-18T23:08:33.457Z,50.50
2017-05-18T23:11:03.252Z,50.90
2017-05-18T23:13:33.079Z,50.90
2017-05-18T23:16:03.805Z,51.00
2017-05-18T23:18:33.631Z,51.40
2017-05-18T23:21:03.420Z,51.70
2017-05-18T23:23:32.538Z,51.60
2017-05-18T23:26:02.341Z,52.20
2017-05-18T23:28:32.262Z,52.00
2017-05-18T23:31:02.062Z,52.20
2017-05-18T23:33:31.887Z,52.20
2017-05-18T23:36:01.797Z,52.40
2017-05-18T23:38:31.582Z,52.70
2017-05-18T23:41:00.655Z,52.80
2017-05-18T23:43:29.700Z,53.30
2017-05-18T23:45:59.509Z,53.30
2017-05-18T23:48:29.297Z,53.20
2017-05-18T23:50:58.365Z,53.70
2017-05-18T23:53:27.430Z,54.40
2017-05-18T23:55:57.229Z,54.30
2017-05-18T23:58:27.037Z,54.30
